sensor_id;sensor_type;location;lat;lon;timestamp;pressure;altitude;pressure_sealevel;temperature;humidity
57038;BME280;59942;49.304;8.256;2022-12-29T00:02:09;99750.03;;;9.65;78.13
57038;BME280;59942;49.304;8.256;2022-12-29T00:04:36;99820.22;;;10.13;77.32
57038;BME280;59942;49.304;8.256;2022-12-29T00:07:03;99770.69;;;9.66;77.92
57038;BME280;59942;49.304;8.256;2022-12-29T00:09:34;99755.69;;;9.19;78.32
57038;BME280;59942;49.304;8.256;2022-12-29T00:12:02;99698.38;;;8.52;76.97
57038;BME280;59942;49.304;8.256;2022-12-29T00:14:30;99819.06;;;8.90;77.18
57038;BME280;59942;49.304;8.256;2022-12-29T00:17:15;99760.13;;;8.38;78.54
57038;BME280;59942;49.304;8.256;2022-12-29T00:19:43;99727.75;;;8.10;78.92
57038;BME280;59942;49.304;8.256;2022-12-29T00:22:29;99808.19;;;8.42;80.56
57038;BME280;59942;49.304;8.256;2022-12-29T00:25:14;99748.88;;;7.99;79.73
57038;BME280;59942;49.304;8.256;2022-12-29T00:28:00;99709.56;;;7.72;79.12
57038;BME280;59942;49.304;8.256;2022-12-29T00:30:45;99765.38;;;8.15;78.54
57038;BME280;59942;49.304;8.256;2022-12-29T00:33:32;99817.75;;;8.40;79.40
57038;BME280;59942;49.304;8.256;2022-12-29T00:36:30;99711.56;;;7.65;78.65
57038;BME280;59942;49.304;8.256;2022-12-29T00:39:02;99821.22;;;8.39;79.47
57038;BME280;59942;49.304;8.256;2022-12-29T00:41:48;99773.47;;;8.08;79.56
57038;BME280;59942;49.304;8.256;2022-12-29T00:44:33;99702.72;;;7.71;79.69
57038;BME280;59942;49.304;8.256;2022-12-29T00:47:00;99785.34;;;8.53;78.86
57038;BME280;59942;49.304;8.256;2022-12-29T00:49:31;99777.69;;;8.71;78.55
57038;BME280;59942;49.304;8.256;2022-12-29T00:52:07;99708.75;;;8.71;77.31
57038;BME280;59942;49.304;8.256;2022-12-29T00:54:37;99821.75;;;9.26;77.73
57038;BME280;59942;49.304;8.256;2022-12-29T00:57:06;99757.09;;;9.07;77.55
57038;BME280;59942;49.304;8.256;2022-12-29T00:59:41;99785.78;;;9.76;77.87
57038;BME280;59942;49.304;8.256;2022-12-29T01:02:09;99787.06;;;9.84;77.90
57038;BME280;59942;49.304;8.256;2022-12-29T01:04:37;99811.66;;;10.28;78.65
57038;BME280;59942;49.304;8.256;2022-12-29T01:07:04;99633.63;;;8.93;78.79
57038;BME280;59942;49.304;8.256;2022-12-29T01:09:31;99821.38;;;10.24;78.85
57038;BME280;59942;49.304;8.256;2022-12-29T01:12:17;99779.00;;;10.08;79.54
57038;BME280;59942;49.304;8.256;2022-12-29T01:15:04;99659.84;;;9.39;79.14
57038;BME280;59942;49.304;8.256;2022-12-29T01:17:32;99595.91;;;9.07;79.46
57038;BME280;59942;49.304;8.256;2022-12-29T01:20:00;99736.13;;;9.85;79.18
57038;BME280;59942;49.304;8.256;2022-12-29T01:22:27;99811.97;;;10.22;80.25
57038;BME280;59942;49.304;8.256;2022-12-29T01:24:54;99798.66;;;10.12;80.34
57038;BME280;59942;49.304;8.256;2022-12-29T01:27:21;99710.78;;;9.74;79.65
57038;BME280;59942;49.304;8.256;2022-12-29T01:29:48;99648.81;;;9.36;79.66
57038;BME280;59942;49.304;8.256;2022-12-29T01:32:15;99658.63;;;9.29;80.20
57038;BME280;59942;49.304;8.256;2022-12-29T01:34:43;99707.94;;;9.79;79.39
57038;BME280;59942;49.304;8.256;2022-12-29T01:37:11;99771.13;;;10.09;80.11
57038;BME280;59942;49.304;8.256;2022-12-29T01:39:39;99771.03;;;9.95;81.71
57038;BME280;59942;49.304;8.256;2022-12-29T01:42:14;99758.44;;;9.87;83.84
57038;BME280;59942;49.304;8.256;2022-12-29T01:44:50;99782.28;;;9.94;84.40
57038;BME280;59942;49.304;8.256;2022-12-29T01:47:34;99680.53;;;9.39;83.69
57038;BME280;59942;49.304;8.256;2022-12-29T01:50:09;99734.81;;;9.59;84.63
57038;BME280;59942;49.304;8.256;2022-12-29T01:52:40;99707.03;;;9.45;84.17
57038;BME280;59942;49.304;8.256;2022-12-29T01:55:10;99715.47;;;9.48;84.54
57038;BME280;59942;49.304;8.256;2022-12-29T01:57:40;99614.63;;;9.12;82.17
57038;BME280;59942;49.304;8.256;2022-12-29T02:00:11;99810.31;;;10.21;82.52
57038;BME280;59942;49.304;8.256;2022-12-29T02:02:47;99720.00;;;9.80;82.65
57038;BME280;59942;49.304;8.256;2022-12-29T02:07:50;99753.09;;;9.90;82.80
57038;BME280;59942;49.304;8.256;2022-12-29T02:10:24;99796.97;;;10.29;82.36
57038;BME280;59942;49.304;8.256;2022-12-29T02:12:53;99790.44;;;10.04;83.27
57038;BME280;59942;49.304;8.256;2022-12-29T02:15:50;99778.25;;;10.06;83.51
57038;BME280;59942;49.304;8.256;2022-12-29T02:37:34;99775.66;;;10.06;83.73
57038;BME280;59942;49.304;8.256;2022-12-29T02:43:09;99644.47;;;9.36;83.20
57038;BME280;59942;49.304;8.256;2022-12-29T02:45:58;99656.13;;;9.45;82.91
57038;BME280;59942;49.304;8.256;2022-12-29T02:51:02;99764.47;;;10.05;83.51
57038;BME280;59942;49.304;8.256;2022-12-29T02:53:33;99648.44;;;9.26;83.39
57038;BME280;59942;49.304;8.256;2022-12-29T02:56:19;99671.09;;;9.38;84.14
57038;BME280;59942;49.304;8.256;2022-12-29T02:58:46;99671.50;;;9.48;83.98
57038;BME280;59942;49.304;8.256;2022-12-29T03:07:23;99746.47;;;10.02;83.80
57038;BME280;59942;49.304;8.256;2022-12-29T03:10:01;99713.53;;;9.71;83.99
57038;BME280;59942;49.304;8.256;2022-12-29T03:12:37;99675.69;;;9.51;83.67
57038;BME280;59942;49.304;8.256;2022-12-29T03:15:46;99752.41;;;10.04;83.92
57038;BME280;59942;49.304;8.256;2022-12-29T03:18:45;99693.47;;;9.74;83.08
57038;BME280;59942;49.304;8.256;2022-12-29T03:21:37;99736.63;;;10.09;82.80
57038;BME280;59942;49.304;8.256;2022-12-29T03:24:27;99659.69;;;9.60;83.29
57038;BME280;59942;49.304;8.256;2022-12-29T03:26:58;99743.81;;;10.04;83.64
57038;BME280;59942;49.304;8.256;2022-12-29T03:29:28;99729.69;;;10.09;82.72
57038;BME280;59942;49.304;8.256;2022-12-29T03:31:58;99708.72;;;9.98;83.60
57038;BME280;59942;49.304;8.256;2022-12-29T03:34:27;99619.03;;;9.27;83.31
57038;BME280;59942;49.304;8.256;2022-12-29T03:37:17;99696.38;;;9.86;83.31
57038;BME280;59942;49.304;8.256;2022-12-29T03:39:45;99580.47;;;9.05;82.91
57038;BME280;59942;49.304;8.256;2022-12-29T03:42:15;99706.88;;;9.83;83.08
57038;BME280;59942;49.304;8.256;2022-12-29T03:44:45;99713.94;;;9.79;82.83
57038;BME280;59942;49.304;8.256;2022-12-29T03:47:13;99666.22;;;9.50;82.59
57038;BME280;59942;49.304;8.256;2022-12-29T03:49:41;99638.69;;;9.31;82.73
57038;BME280;59942;49.304;8.256;2022-12-29T03:52:08;99528.53;;;8.75;81.81
57038;BME280;59942;49.304;8.256;2022-12-29T03:54:34;99616.59;;;9.24;81.85
57038;BME280;59942;49.304;8.256;2022-12-29T03:57:01;99554.84;;;8.83;81.80
57038;BME280;59942;49.304;8.256;2022-12-29T03:59:29;99685.72;;;9.57;82.36
57038;BME280;59942;49.304;8.256;2022-12-29T04:01:56;99611.19;;;9.11;82.31
57038;BME280;59942;49.304;8.256;2022-12-29T04:04:23;99542.09;;;8.61;82.67
57038;BME280;59942;49.304;8.256;2022-12-29T04:06:50;99686.94;;;9.50;82.70
57038;BME280;59942;49.304;8.256;2022-12-29T04:09:17;99666.97;;;9.34;81.87
57038;BME280;59942;49.304;8.256;2022-12-29T04:11:44;99609.06;;;9.02;81.87
57038;BME280;59942;49.304;8.256;2022-12-29T04:14:11;99578.84;;;8.85;81.29
57038;BME280;59942;49.304;8.256;2022-12-29T04:16:38;99669.81;;;9.47;81.19
57038;BME280;59942;49.304;8.256;2022-12-29T04:19:06;99600.84;;;8.94;81.69
57038;BME280;59942;49.304;8.256;2022-12-29T04:21:34;99674.53;;;9.39;82.03
57038;BME280;59942;49.304;8.256;2022-12-29T04:24:01;99583.78;;;8.90;81.58
57038;BME280;59942;49.304;8.256;2022-12-29T04:26:28;99640.50;;;9.29;80.47
57038;BME280;59942;49.304;8.256;2022-12-29T04:28:55;99528.44;;;8.94;79.58
57038;BME280;59942;49.304;8.256;2022-12-29T04:31:22;99561.63;;;9.03;79.11
57038;BME280;59942;49.304;8.256;2022-12-29T04:33:49;99491.28;;;8.79;79.06
57038;BME280;59942;49.304;8.256;2022-12-29T04:36:16;99569.53;;;9.17;79.03
57038;BME280;59942;49.304;8.256;2022-12-29T04:38:44;99563.50;;;9.17;78.68
57038;BME280;59942;49.304;8.256;2022-12-29T04:41:11;99570.13;;;9.23;79.13
57038;BME280;59942;49.304;8.256;2022-12-29T04:43:38;99616.16;;;9.33;80.02
57038;BME280;59942;49.304;8.256;2022-12-29T04:46:05;99651.75;;;9.63;80.36
57038;BME280;59942;49.304;8.256;2022-12-29T04:48:33;99623.53;;;9.41;80.24
57038;BME280;59942;49.304;8.256;2022-12-29T04:51:00;99555.72;;;9.34;78.97
57038;BME280;59942;49.304;8.256;2022-12-29T04:53:27;99603.03;;;9.71;78.69
57038;BME280;59942;49.304;8.256;2022-12-29T04:55:54;99630.06;;;9.99;78.08
57038;BME280;59942;49.304;8.256;2022-12-29T04:58:21;99683.50;;;10.35;78.01
57038;BME280;59942;49.304;8.256;2022-12-29T05:00:50;99574.84;;;9.83;77.33
57038;BME280;59942;49.304;8.256;2022-12-29T05:03:17;99517.81;;;9.51;77.28
57038;BME280;59942;49.304;8.256;2022-12-29T05:09:35;99677.59;;;10.49;78.03
57038;BME280;59942;49.304;8.256;2022-12-29T05:12:02;99600.75;;;9.99;77.87
57038;BME280;59942;49.304;8.256;2022-12-29T05:14:29;99547.44;;;9.45;78.95
57038;BME280;59942;49.304;8.256;2022-12-29T05:16:56;99659.13;;;10.22;78.50
57038;BME280;59942;49.304;8.256;2022-12-29T05:19:23;99519.34;;;9.21;79.09
57038;BME280;59942;49.304;8.256;2022-12-29T05:21:50;99673.75;;;10.23;79.67
57038;BME280;59942;49.304;8.256;2022-12-29T05:24:17;99572.09;;;9.52;79.15
57038;BME280;59942;49.304;8.256;2022-12-29T05:26:44;99606.00;;;9.81;79.69
57038;BME280;59942;49.304;8.256;2022-12-29T05:29:11;99649.88;;;10.00;80.00
57038;BME280;59942;49.304;8.256;2022-12-29T05:31:38;99565.84;;;9.56;79.36
57038;BME280;59942;49.304;8.256;2022-12-29T05:34:05;99653.22;;;10.20;78.77
57038;BME280;59942;49.304;8.256;2022-12-29T05:36:33;99533.53;;;9.30;78.73
57038;BME280;59942;49.304;8.256;2022-12-29T05:39:03;99663.22;;;10.10;79.02
57038;BME280;59942;49.304;8.256;2022-12-29T05:41:35;99601.34;;;9.88;78.08
57038;BME280;59942;49.304;8.256;2022-12-29T05:44:02;99650.69;;;10.18;78.18
57038;BME280;59942;49.304;8.256;2022-12-29T05:46:29;99646.50;;;10.16;77.58
57038;BME280;59942;49.304;8.256;2022-12-29T05:48:56;99605.94;;;9.99;77.33
57038;BME280;59942;49.304;8.256;2022-12-29T05:51:23;99679.44;;;10.47;77.93
57038;BME280;59942;49.304;8.256;2022-12-29T05:53:50;99523.31;;;9.45;76.67
57038;BME280;59942;49.304;8.256;2022-12-29T05:56:17;99548.44;;;9.76;76.53
57038;BME280;59942;49.304;8.256;2022-12-29T05:58:44;99641.13;;;10.36;76.67
57038;BME280;59942;49.304;8.256;2022-12-29T06:01:11;99565.94;;;10.04;75.59
57038;BME280;59942;49.304;8.256;2022-12-29T06:03:38;99535.41;;;9.78;76.15
57038;BME280;59942;49.304;8.256;2022-12-29T06:06:13;99619.75;;;10.31;76.38
57038;BME280;59942;49.304;8.256;2022-12-29T06:08:40;99570.09;;;9.91;76.88
57038;BME280;59942;49.304;8.256;2022-12-29T06:11:07;99666.78;;;10.41;77.71
57038;BME280;59942;49.304;8.256;2022-12-29T06:13:34;99554.34;;;9.62;78.50
57038;BME280;59942;49.304;8.256;2022-12-29T06:16:01;99687.78;;;10.19;79.02
57038;BME280;59942;49.304;8.256;2022-12-29T06:18:29;99549.97;;;9.29;79.49
57038;BME280;59942;49.304;8.256;2022-12-29T06:21:04;99518.41;;;9.05;79.73
57038;BME280;59942;49.304;8.256;2022-12-29T06:23:31;99550.56;;;9.17;79.39
57038;BME280;59942;49.304;8.256;2022-12-29T06:25:58;99566.03;;;9.36;80.47
57038;BME280;59942;49.304;8.256;2022-12-29T06:28:25;99664.56;;;9.84;80.28
57038;BME280;59942;49.304;8.256;2022-12-29T06:30:52;99551.03;;;9.25;79.09
57038;BME280;59942;49.304;8.256;2022-12-29T06:33:19;99555.09;;;9.13;79.51
57038;BME280;59942;49.304;8.256;2022-12-29T06:35:47;99669.50;;;9.88;79.96
57038;BME280;59942;49.304;8.256;2022-12-29T06:38:14;99660.66;;;9.93;78.99
57038;BME280;59942;49.304;8.256;2022-12-29T06:40:42;99559.03;;;9.38;78.01
57038;BME280;59942;49.304;8.256;2022-12-29T06:43:11;99495.31;;;9.02;77.67
57038;BME280;59942;49.304;8.256;2022-12-29T06:45:39;99643.88;;;10.00;77.36
57038;BME280;59942;49.304;8.256;2022-12-29T06:48:07;99545.97;;;9.57;77.05
57038;BME280;59942;49.304;8.256;2022-12-29T06:50:34;99638.50;;;10.20;76.32
57038;BME280;59942;49.304;8.256;2022-12-29T06:53:01;99632.28;;;10.07;76.37
57038;BME280;59942;49.304;8.256;2022-12-29T06:55:28;99605.28;;;9.95;76.42
57038;BME280;59942;49.304;8.256;2022-12-29T06:57:56;99644.94;;;10.29;75.71
57038;BME280;59942;49.304;8.256;2022-12-29T07:00:24;99547.06;;;9.69;75.23
57038;BME280;59942;49.304;8.256;2022-12-29T07:02:51;99492.81;;;9.34;76.68
57038;BME280;59942;49.304;8.256;2022-12-29T07:05:19;99543.22;;;9.60;75.32
57038;BME280;59942;49.304;8.256;2022-12-29T07:07:45;99599.78;;;10.01;74.84
57038;BME280;59942;49.304;8.256;2022-12-29T07:10:12;99545.44;;;9.68;74.74
57038;BME280;59942;49.304;8.256;2022-12-29T07:12:39;99537.53;;;9.53;75.86
57038;BME280;59942;49.304;8.256;2022-12-29T07:15:07;99538.63;;;9.49;75.38
57038;BME280;59942;49.304;8.256;2022-12-29T07:17:34;99590.38;;;9.83;74.74
57038;BME280;59942;49.304;8.256;2022-12-29T07:20:01;99547.81;;;9.55;75.26
57038;BME280;59942;49.304;8.256;2022-12-29T07:22:28;99608.50;;;9.83;75.74
57038;BME280;59942;49.304;8.256;2022-12-29T07:24:55;99505.31;;;9.26;76.01
57038;BME280;59942;49.304;8.256;2022-12-29T07:27:22;99540.03;;;9.55;74.61
57038;BME280;59942;49.304;8.256;2022-12-29T07:29:49;99550.00;;;9.63;74.70
57038;BME280;59942;49.304;8.256;2022-12-29T07:32:16;99669.81;;;10.49;73.24
57038;BME280;59942;49.304;8.256;2022-12-29T07:34:44;99587.97;;;9.96;74.05
57038;BME280;59942;49.304;8.256;2022-12-29T07:37:17;99658.72;;;10.30;74.63
57038;BME280;59942;49.304;8.256;2022-12-29T07:39:44;99618.00;;;10.16;74.25
57038;BME280;59942;49.304;8.256;2022-12-29T07:42:11;99546.34;;;9.67;74.36
57038;BME280;59942;49.304;8.256;2022-12-29T07:44:38;99568.75;;;9.84;73.27
57038;BME280;59942;49.304;8.256;2022-12-29T07:47:05;99639.28;;;10.38;72.85
57038;BME280;59942;49.304;8.256;2022-12-29T07:49:32;99662.69;;;10.53;73.20
57038;BME280;59942;49.304;8.256;2022-12-29T07:51:59;99552.81;;;9.91;72.80
57038;BME280;59942;49.304;8.256;2022-12-29T07:54:26;99669.09;;;10.63;72.96
57038;BME280;59942;49.304;8.256;2022-12-29T07:56:53;99575.63;;;10.17;72.25
57038;BME280;59942;49.304;8.256;2022-12-29T07:59:20;99586.75;;;10.19;72.33
57038;BME280;59942;49.304;8.256;2022-12-29T08:01:47;99663.94;;;10.46;73.40
57038;BME280;59942;49.304;8.256;2022-12-29T08:04:15;99542.09;;;9.82;72.07
57038;BME280;59942;49.304;8.256;2022-12-29T08:06:42;99557.00;;;10.10;71.12
57038;BME280;59942;49.304;8.256;2022-12-29T08:09:08;99573.31;;;10.28;70.71
57038;BME280;59942;49.304;8.256;2022-12-29T08:11:43;99671.78;;;10.77;71.34
57038;BME280;59942;49.304;8.256;2022-12-29T08:14:11;99686.53;;;11.07;70.04
57038;BME280;59942;49.304;8.256;2022-12-29T08:16:38;99539.28;;;10.02;71.28
57038;BME280;59942;49.304;8.256;2022-12-29T08:19:05;99591.59;;;10.25;70.22
57038;BME280;59942;49.304;8.256;2022-12-29T08:21:32;99633.72;;;10.62;71.12
57038;BME280;59942;49.304;8.256;2022-12-29T08:23:59;99588.44;;;10.20;71.39
57038;BME280;59942;49.304;8.256;2022-12-29T08:26:27;99641.56;;;10.60;70.89
57038;BME280;59942;49.304;8.256;2022-12-29T08:28:54;99710.13;;;11.19;69.93
57038;BME280;59942;49.304;8.256;2022-12-29T08:31:23;99571.72;;;10.25;70.21
57038;BME280;59942;49.304;8.256;2022-12-29T08:33:51;99670.88;;;11.09;69.49
57038;BME280;59942;49.304;8.256;2022-12-29T08:36:18;99598.41;;;10.59;69.87
57038;BME280;59942;49.304;8.256;2022-12-29T08:38:45;99562.75;;;10.31;69.88
57038;BME280;59942;49.304;8.256;2022-12-29T08:41:12;99638.34;;;10.87;70.67
57038;BME280;59942;49.304;8.256;2022-12-29T08:43:39;99663.78;;;11.12;70.04
57038;BME280;59942;49.304;8.256;2022-12-29T08:46:06;99718.94;;;11.46;71.85
57038;BME280;59942;49.304;8.256;2022-12-29T08:48:33;99701.91;;;11.26;71.10
57038;BME280;59942;49.304;8.256;2022-12-29T08:51:00;99684.91;;;11.21;71.57
57038;BME280;59942;49.304;8.256;2022-12-29T08:53:27;99735.56;;;11.44;71.42
57038;BME280;59942;49.304;8.256;2022-12-29T08:55:57;99651.75;;;10.95;71.56
57038;BME280;59942;49.304;8.256;2022-12-29T08:58:29;99614.06;;;10.58;72.95
57038;BME280;59942;49.304;8.256;2022-12-29T09:00:57;99633.28;;;10.70;73.24
57038;BME280;59942;49.304;8.256;2022-12-29T09:03:25;99617.97;;;10.65;72.51
57038;BME280;59942;49.304;8.256;2022-12-29T09:06:13;99696.00;;;11.08;72.72
57038;BME280;59942;49.304;8.256;2022-12-29T09:08:40;99646.31;;;10.84;72.50
57038;BME280;59942;49.304;8.256;2022-12-29T09:13:35;99660.13;;;11.01;72.97
57038;BME280;59942;49.304;8.256;2022-12-29T09:16:03;99623.94;;;10.98;71.47
57038;BME280;59942;49.304;8.256;2022-12-29T09:18:31;99717.44;;;11.42;72.88
57038;BME280;59942;49.304;8.256;2022-12-29T09:20:59;99771.72;;;11.47;73.41
57038;BME280;59942;49.304;8.256;2022-12-29T09:23:27;99670.81;;;10.78;73.76
57038;BME280;59942;49.304;8.256;2022-12-29T09:25:54;99725.28;;;11.10;74.43
57038;BME280;59942;49.304;8.256;2022-12-29T09:28:22;99655.34;;;10.61;75.54
57038;BME280;59942;49.304;8.256;2022-12-29T09:30:50;99745.63;;;11.18;75.09
57038;BME280;59942;49.304;8.256;2022-12-29T09:33:17;99726.41;;;11.06;75.10
57038;BME280;59942;49.304;8.256;2022-12-29T09:35:50;99788.31;;;11.44;74.69
57038;BME280;59942;49.304;8.256;2022-12-29T09:38:18;99781.00;;;11.35;75.69
57038;BME280;59942;49.304;8.256;2022-12-29T09:40:49;99783.38;;;11.40;76.20
57038;BME280;59942;49.304;8.256;2022-12-29T09:46:18;99784.72;;;11.31;76.66
57038;BME280;59942;49.304;8.256;2022-12-29T09:49:29;99746.53;;;11.17;75.78
57038;BME280;59942;49.304;8.256;2022-12-29T09:51:59;99717.00;;;11.04;75.79
57038;BME280;59942;49.304;8.256;2022-12-29T09:58:12;99732.31;;;11.24;75.70
57038;BME280;59942;49.304;8.256;2022-12-29T10:00:15;99737.50;;;11.24;75.63
57038;BME280;59942;49.304;8.256;2022-12-29T11:12:31;99789.13;;;13.08;68.22
57038;BME280;59942;49.304;8.256;2022-12-29T11:20:30;99793.91;;;13.01;64.59
57038;BME280;59942;49.304;8.256;2022-12-29T11:22:58;99810.38;;;13.29;65.10
57038;BME280;59942;49.304;8.256;2022-12-29T11:25:25;99799.91;;;13.16;65.41
57038;BME280;59942;49.304;8.256;2022-12-29T11:27:56;99804.56;;;12.82;65.05
57038;BME280;59942;49.304;8.256;2022-12-29T11:30:27;99811.06;;;12.61;65.30
57038;BME280;59942;49.304;8.256;2022-12-29T11:32:57;99810.81;;;12.65;67.09
57038;BME280;59942;49.304;8.256;2022-12-29T12:13:32;99810.44;;;12.57;72.73
57038;BME280;59942;49.304;8.256;2022-12-29T12:16:22;99787.13;;;12.84;69.92
57038;BME280;59942;49.304;8.256;2022-12-29T12:19:28;99796.22;;;12.92;69.15
57038;BME280;59942;49.304;8.256;2022-12-29T12:21:59;99807.75;;;12.73;70.42
57038;BME280;59942;49.304;8.256;2022-12-29T12:24:41;99805.72;;;12.78;70.98
57038;BME280;59942;49.304;8.256;2022-12-29T12:27:21;99796.53;;;12.58;71.83
57038;BME280;59942;49.304;8.256;2022-12-29T12:29:57;99808.63;;;12.29;73.42
57038;BME280;59942;49.304;8.256;2022-12-29T12:33:04;99760.25;;;11.97;75.12
57038;BME280;59942;49.304;8.256;2022-12-29T12:38:41;99807.78;;;11.68;76.70
57038;BME280;59942;49.304;8.256;2022-12-29T12:41:13;99816.81;;;11.76;79.19
57038;BME280;59942;49.304;8.256;2022-12-29T12:43:56;99810.31;;;11.53;79.62
57038;BME280;59942;49.304;8.256;2022-12-29T13:15:29;99786.19;;;11.35;82.66
57038;BME280;59942;49.304;8.256;2022-12-29T13:22:53;99794.16;;;11.32;85.75
57038;BME280;59942;49.304;8.256;2022-12-29T13:25:48;99793.75;;;11.24;81.04
57038;BME280;59942;49.304;8.256;2022-12-29T13:28:31;99767.56;;;10.97;83.17
57038;BME280;59942;49.304;8.256;2022-12-29T13:31:15;99727.38;;;10.56;81.84
57038;BME280;59942;49.304;8.256;2022-12-29T13:37:15;99668.06;;;10.16;82.60
57038;BME280;59942;49.304;8.256;2022-12-29T13:39:54;99755.13;;;10.70;82.56
57038;BME280;59942;49.304;8.256;2022-12-29T13:42:24;99787.34;;;10.82;84.81
57038;BME280;59942;49.304;8.256;2022-12-29T13:47:51;99723.56;;;10.28;83.20
57038;BME280;59942;49.304;8.256;2022-12-29T13:50:22;99799.50;;;10.81;82.29
57038;BME280;59942;49.304;8.256;2022-12-29T13:53:01;99760.53;;;10.49;83.23
57038;BME280;59942;49.304;8.256;2022-12-29T13:58:47;99817.00;;;10.60;83.20
57038;BME280;59942;49.304;8.256;2022-12-29T14:04:02;99744.19;;;9.96;83.87
57038;BME280;59942;49.304;8.256;2022-12-29T14:06:34;99715.72;;;9.79;83.29
57038;BME280;59942;49.304;8.256;2022-12-29T14:09:41;99834.34;;;10.42;83.53
57038;BME280;59942;49.304;8.256;2022-12-29T14:14:48;99726.69;;;9.66;84.43
57038;BME280;59942;49.304;8.256;2022-12-29T14:17:20;99739.69;;;9.65;83.67
57038;BME280;59942;49.304;8.256;2022-12-29T14:19:52;99803.75;;;9.96;81.74
57038;BME280;59942;49.304;8.256;2022-12-29T14:22:25;99798.09;;;9.70;82.24
57038;BME280;59942;49.304;8.256;2022-12-29T14:24:58;99759.91;;;9.39;83.79
57038;BME280;59942;49.304;8.256;2022-12-29T14:27:43;99711.19;;;8.93;84.58
57038;BME280;59942;49.304;8.256;2022-12-29T14:30:46;99810.66;;;9.61;84.58
57038;BME280;59942;49.304;8.256;2022-12-29T14:33:14;99803.69;;;9.44;85.72
57038;BME280;59942;49.304;8.256;2022-12-29T14:35:43;99734.06;;;9.20;83.33
57038;BME280;59942;49.304;8.256;2022-12-29T14:40:46;99823.91;;;9.72;84.36
57038;BME280;59942;49.304;8.256;2022-12-29T14:43:25;99830.75;;;9.73;84.97
57038;BME280;59942;49.304;8.256;2022-12-29T14:45:56;99809.34;;;9.52;84.53
57038;BME280;59942;49.304;8.256;2022-12-29T14:48:41;99854.78;;;9.77;83.25
57038;BME280;59942;49.304;8.256;2022-12-29T14:51:21;99778.22;;;9.34;84.84
57038;BME280;59942;49.304;8.256;2022-12-29T14:53:54;99850.81;;;9.87;84.44
57038;BME280;59942;49.304;8.256;2022-12-29T14:56:27;99847.00;;;9.77;84.46
57038;BME280;59942;49.304;8.256;2022-12-29T15:04:06;99819.13;;;9.82;83.32
57038;BME280;59942;49.304;8.256;2022-12-29T15:06:42;99784.84;;;9.59;83.74
57038;BME280;59942;49.304;8.256;2022-12-29T15:09:27;99843.78;;;9.71;82.86
57038;BME280;59942;49.304;8.256;2022-12-29T15:17:01;99805.72;;;9.37;82.90
57038;BME280;59942;49.304;8.256;2022-12-29T15:19:36;99810.13;;;9.35;83.65
57038;BME280;59942;49.304;8.256;2022-12-29T15:22:03;99787.28;;;9.07;83.34
57038;BME280;59942;49.304;8.256;2022-12-29T15:24:32;99752.91;;;8.85;83.93
57038;BME280;59942;49.304;8.256;2022-12-29T15:27:06;99801.53;;;9.15;84.08
57038;BME280;59942;49.304;8.256;2022-12-29T15:29:39;99856.34;;;9.43;83.86
57038;BME280;59942;49.304;8.256;2022-12-29T15:34:47;99845.50;;;9.15;83.57
57038;BME280;59942;49.304;8.256;2022-12-29T15:37:27;99850.81;;;9.12;84.47
57038;BME280;59942;49.304;8.256;2022-12-29T15:39:55;99850.88;;;9.11;83.98
57038;BME280;59942;49.304;8.256;2022-12-29T15:44:52;99829.00;;;8.99;84.24
57038;BME280;59942;49.304;8.256;2022-12-29T15:47:34;99831.25;;;8.67;85.37
57038;BME280;59942;49.304;8.256;2022-12-29T15:50:05;99820.47;;;8.57;86.22
57038;BME280;59942;49.304;8.256;2022-12-29T15:52:34;99882.50;;;8.97;85.59
57038;BME280;59942;49.304;8.256;2022-12-29T15:55:01;99902.88;;;9.04;86.37
57038;BME280;59942;49.304;8.256;2022-12-29T15:57:31;99824.47;;;8.64;86.06
57038;BME280;59942;49.304;8.256;2022-12-29T16:00:17;99882.50;;;8.97;86.36
57038;BME280;59942;49.304;8.256;2022-12-29T16:02:48;99868.81;;;8.95;85.74
57038;BME280;59942;49.304;8.256;2022-12-29T16:05:17;99861.91;;;8.95;85.87
57038;BME280;59942;49.304;8.256;2022-12-29T16:07:53;99869.47;;;9.00;86.06
57038;BME280;59942;49.304;8.256;2022-12-29T16:10:37;99784.75;;;8.46;85.34
57038;BME280;59942;49.304;8.256;2022-12-29T16:13:26;99906.81;;;9.32;85.69
57038;BME280;59942;49.304;8.256;2022-12-29T16:16:02;99898.38;;;9.29;85.70
57038;BME280;59942;49.304;8.256;2022-12-29T16:18:36;99869.63;;;9.16;85.66
57038;BME280;59942;49.304;8.256;2022-12-29T16:21:05;99847.31;;;8.94;85.71
57038;BME280;59942;49.304;8.256;2022-12-29T16:23:44;99897.44;;;9.30;85.32
57038;BME280;59942;49.304;8.256;2022-12-29T16:26:17;99891.09;;;9.18;85.39
57038;BME280;59942;49.304;8.256;2022-12-29T16:28:48;99865.75;;;9.06;85.43
57038;BME280;59942;49.304;8.256;2022-12-29T16:31:22;99815.94;;;8.83;85.11
57038;BME280;59942;49.304;8.256;2022-12-29T16:33:55;99876.44;;;8.98;86.02
57038;BME280;59942;49.304;8.256;2022-12-29T16:39:20;99955.69;;;9.38;86.64
57038;BME280;59942;49.304;8.256;2022-12-29T16:41:49;99900.69;;;8.95;85.78
57038;BME280;59942;49.304;8.256;2022-12-29T16:44:19;99950.56;;;9.18;86.63
57038;BME280;59942;49.304;8.256;2022-12-29T16:49:33;99967.19;;;9.12;87.83
57038;BME280;59942;49.304;8.256;2022-12-29T16:52:01;99925.97;;;8.89;87.66
57038;BME280;59942;49.304;8.256;2022-12-29T16:54:36;99941.16;;;8.96;88.20
57038;BME280;59942;49.304;8.256;2022-12-29T16:57:07;99948.91;;;8.96;88.40
57038;BME280;59942;49.304;8.256;2022-12-29T16:59:38;99965.44;;;9.13;88.56
57038;BME280;59942;49.304;8.256;2022-12-29T17:02:16;99918.81;;;8.75;88.63
57038;BME280;59942;49.304;8.256;2022-12-29T17:04:46;99899.75;;;8.57;87.86
57038;BME280;59942;49.304;8.256;2022-12-29T17:07:17;99908.22;;;8.60;88.51
57038;BME280;59942;49.304;8.256;2022-12-29T17:09:45;99954.81;;;9.00;88.34
57038;BME280;59942;49.304;8.256;2022-12-29T17:12:19;99965.84;;;9.03;87.77
57038;BME280;59942;49.304;8.256;2022-12-29T17:15:14;99976.38;;;9.19;87.52
57038;BME280;59942;49.304;8.256;2022-12-29T17:17:46;99928.63;;;8.87;87.06
57038;BME280;59942;49.304;8.256;2022-12-29T17:20:28;99929.59;;;8.84;86.64
57038;BME280;59942;49.304;8.256;2022-12-29T17:22:58;99883.53;;;8.53;85.36
57038;BME280;59942;49.304;8.256;2022-12-29T17:25:35;99926.22;;;8.82;85.74
57038;BME280;59942;49.304;8.256;2022-12-29T17:28:12;99940.31;;;8.96;85.11